Time;durP1;ratioP1;P1;durP2;ratioP2;P2;SDS_P1;SDS_P2;PMS_P1;PMS_P2;Temp;Humidity;BMP_temperature;BMP_pressure;BME280_temperature;BME280_humidity;BME280_pressure;Samples;Min_cycle;Max_cycle;Signal;HPM_P1;HPM_P2
2023/10/15 00:05:50;;;;;;;3.55;1.30;;;;;;;12.43;38.30;101393.53;5001588;28;20541;-84
2023/10/15 00:08:31;;;;;;;3.28;1.30;;;;;;;12.45;38.17;101392.41;5012272;28;20049;-84
2023/10/15 00:15:07;;;;;;;3.08;1.15;;;;;;;12.35;38.11;101399.69;5003842;28;20412;-83
2023/10/15 00:26:04;;;;;;;2.65;1.20;;;;;;;12.34;38.45;101394.34;5048811;28;20098;-83
2023/10/15 00:39:59;;;;;;;4.53;1.63;;;;;;;12.29;38.57;101400.25;5066339;28;20060;-82
2023/10/15 00:43:03;;;;;;;3.72;1.45;;;;;;;12.30;38.92;101396.47;5071873;28;20049;-84
2023/10/15 00:45:43;;;;;;;4.25;1.50;;;;;;;12.28;38.37;101398.50;5029059;28;20156;-83
2023/10/15 00:48:33;;;;;;;3.67;1.30;;;;;;;12.27;38.57;101399.50;5038214;28;20059;-84
2023/10/15 00:51:08;;;;;;;3.10;1.23;;;;;;;12.26;38.12;101400.50;5036472;28;20044;-84
2023/10/15 00:53:42;;;;;;;4.65;1.52;;;;;;;12.23;38.29;101394.38;5034302;28;20056;-83
2023/10/15 00:56:11;;;;;;;3.30;1.50;;;;;;;12.25;38.27;101393.25;5040901;28;20044;-83
2023/10/15 00:58:53;;;;;;;4.72;1.73;;;;;;;12.25;38.32;101389.66;5055274;28;20048;-84
2023/10/15 01:01:26;;;;;;;4.50;1.40;;;;;;;12.16;38.36;101385.81;5039920;28;20073;-83
2023/10/15 01:03:59;;;;;;;3.05;1.40;;;;;;;12.18;38.46;101383.81;5029887;28;20044;-84
2023/10/15 01:06:35;;;;;;;2.85;1.20;;;;;;;12.15;38.69;101381.31;5047271;28;20154;-84
2023/10/15 01:09:09;;;;;;;3.38;1.25;;;;;;;12.18;38.92;101388.44;5055390;28;20094;-83
2023/10/15 01:11:43;;;;;;;3.58;2.15;;;;;;;12.15;38.64;101383.19;5048174;28;20151;-83
2023/10/15 01:14:14;;;;;;;4.45;1.40;;;;;;;12.17;38.31;101375.72;5053993;28;20056;-83
2023/10/15 01:16:42;;;;;;;3.97;1.58;;;;;;;12.11;38.34;101378.00;5039489;28;20132;-83
2023/10/15 01:19:19;;;;;;;3.88;1.58;;;;;;;12.11;38.51;101383.47;5038718;28;20136;-85
2023/10/15 01:21:53;;;;;;;4.40;1.40;;;;;;;12.10;38.82;101383.59;5029215;28;20604;-83
2023/10/15 01:24:22;;;;;;;3.00;1.27;;;;;;;12.07;38.63;101376.50;5033145;28;20056;-84
2023/10/15 01:29:41;;;;;;;3.45;1.40;;;;;;;12.04;38.71;101385.00;5031927;28;20053;-83
2023/10/15 01:32:10;;;;;;;3.70;1.20;;;;;;;12.01;38.33;101381.66;5037164;28;20059;-84
2023/10/15 01:34:41;;;;;;;3.75;1.17;;;;;;;12.00;38.65;101379.91;5036841;28;20146;-83
2023/10/15 01:37:15;;;;;;;4.10;1.40;;;;;;;11.99;38.66;101384.50;5056271;28;20048;-82
2023/10/15 01:39:48;;;;;;;5.10;1.77;;;;;;;11.97;38.85;101378.28;5047416;28;20076;-83
2023/10/15 01:42:40;;;;;;;3.88;1.58;;;;;;;11.95;39.00;101369.34;5047483;28;20072;-83
2023/10/15 01:45:30;;;;;;;3.22;1.30;;;;;;;11.94;38.73;101372.22;5040552;28;20056;-83
2023/10/15 01:48:13;;;;;;;3.85;1.42;;;;;;;11.94;38.71;101374.94;5020833;28;20805;-85
2023/10/15 01:51:06;;;;;;;2.70;1.30;;;;;;;11.89;38.77;101368.97;5034560;28;20049;-83
2023/10/15 01:53:45;;;;;;;4.38;1.40;;;;;;;11.90;38.80;101365.22;5049793;28;20048;-83
2023/10/15 01:56:20;;;;;;;4.32;1.60;;;;;;;11.88;38.85;101368.13;5040811;28;20110;-82
2023/10/15 01:58:52;;;;;;;2.55;1.35;;;;;;;11.85;38.87;101360.16;5038961;28;20057;-83
2023/10/15 02:01:31;;;;;;;3.38;1.50;;;;;;;11.85;38.85;101362.88;5032195;28;20051;-86
2023/10/15 02:04:00;;;;;;;4.13;1.63;;;;;;;11.81;38.88;101360.53;5057733;28;20052;-84
2023/10/15 02:06:30;;;;;;;5.63;2.10;;;;;;;11.82;38.60;101357.66;5039722;28;20053;-84
2023/10/15 02:08:59;;;;;;;5.10;1.77;;;;;;;11.77;38.97;101357.19;5065343;28;20203;-84
2023/10/15 02:11:27;;;;;;;4.57;1.50;;;;;;;11.77;38.52;101361.78;5041249;28;20064;-85
2023/10/15 02:13:57;;;;;;;4.32;1.60;;;;;;;11.77;38.93;101357.19;5053121;28;20756;-83
2023/10/15 02:16:32;;;;;;;4.40;1.52;;;;;;;11.74;38.97;101357.44;5064320;28;20143;-82
2023/10/15 02:19:01;;;;;;;4.10;1.42;;;;;;;11.70;38.89;101354.09;5067186;28;20056;-82
2023/10/15 02:21:34;;;;;;;3.75;1.40;;;;;;;11.68;39.09;101368.94;5046841;28;20180;-85
2023/10/15 02:24:08;;;;;;;4.00;1.38;;;;;;;11.67;39.17;101383.63;5055496;28;20608;-84
2023/10/15 02:26:37;;;;;;;4.55;1.60;;;;;;;11.66;39.54;101401.06;5042241;28;20056;-85
2023/10/15 02:29:21;;;;;;;4.15;1.45;;;;;;;11.69;39.32;101401.72;5041866;28;20067;-84
2023/10/15 02:31:49;;;;;;;3.38;1.40;;;;;;;11.67;39.27;101397.34;5049167;28;20054;-85
2023/10/15 02:34:24;;;;;;;4.40;1.90;;;;;;;11.67;39.65;101387.25;5023859;28;20158;-85
2023/10/15 02:36:53;;;;;;;4.32;1.67;;;;;;;11.68;39.46;101386.25;5039079;28;20056;-85
2023/10/15 02:39:23;;;;;;;5.07;1.80;;;;;;;11.66;39.79;101380.00;5029131;28;20135;-84
2023/10/15 02:41:52;;;;;;;3.20;1.67;;;;;;;11.65;39.69;101383.75;5030963;28;20060;-85
2023/10/15 02:44:22;;;;;;;5.43;2.03;;;;;;;11.66;39.61;101392.84;5043646;28;20085;-86
2023/10/15 02:47:06;;;;;;;5.25;2.05;;;;;;;11.64;39.62;101383.88;5035787;28;20052;-85
2023/10/15 02:49:50;;;;;;;4.13;1.85;;;;;;;11.64;39.56;101389.38;5041257;28;20130;-85
2023/10/15 02:52:20;;;;;;;4.35;1.73;;;;;;;11.62;40.00;101386.78;5055168;28;20413;-84
2023/10/15 02:54:49;;;;;;;4.68;1.98;;;;;;;11.62;39.96;101381.28;5050057;28;20045;-86
2023/10/15 02:57:17;;;;;;;3.70;1.83;;;;;;;11.64;40.09;101394.84;5047037;28;20072;-85
2023/10/15 02:59:51;;;;;;;4.50;1.80;;;;;;;11.64;39.96;101390.22;5048475;28;20064;-84
2023/10/15 03:02:20;;;;;;;4.72;1.70;;;;;;;11.61;39.93;101389.63;5052055;28;20065;-84
2023/10/15 03:04:53;;;;;;;3.97;1.55;;;;;;;11.61;40.32;101389.63;5035660;28;20040;-84
2023/10/15 03:07:29;;;;;;;;;;;;;;;11.35;40.85;101394.50;5060069;28;20125;-84
2023/10/15 03:09:58;;;;;;;4.35;1.55;;;;;;;11.57;40.07;101401.81;5056984;28;19995;-84
2023/10/15 03:12:33;;;;;;;4.15;1.70;;;;;;;11.59;40.04;101394.34;5039186;28;20037;-84
2023/10/15 03:15:07;;;;;;;4.75;1.80;;;;;;;11.61;40.12;101401.47;5032962;28;20059;-84
2023/10/15 03:17:40;;;;;;;4.07;1.67;;;;;;;11.61;40.52;101408.81;5045694;28;20139;-84
2023/10/15 03:20:24;;;;;;;3.25;1.70;;;;;;;11.60;40.36;101407.91;5032215;28;20053;-84
2023/10/15 03:22:58;;;;;;;4.28;1.63;;;;;;;11.58;40.77;101403.56;5048125;28;20063;-83
2023/10/15 03:25:28;;;;;;;4.65;1.80;;;;;;;11.57;40.23;101399.06;5037548;28;20045;-84
2023/10/15 03:28:00;;;;;;;3.88;2.42;;;;;;;11.59;40.56;101403.44;5053609;28;20397;-84
2023/10/15 03:30:33;;;;;;;3.83;2.07;;;;;;;11.56;40.66;101408.28;5058212;28;20500;-86
2023/10/15 03:33:01;;;;;;;3.85;1.70;;;;;;;11.56;40.47;101420.13;5038993;28;20327;-84
2023/10/15 03:35:37;;;;;;;4.38;1.83;;;;;;;11.55;40.42;101414.78;5063093;28;20055;-85
2023/10/15 03:38:06;;;;;;;4.20;1.95;;;;;;;11.51;41.07;101421.50;5047832;28;20045;-83
2023/10/15 03:40:41;;;;;;;4.72;1.70;;;;;;;11.51;41.04;101416.91;5043075;28;20080;-84
2023/10/15 03:43:15;;;;;;;4.30;2.08;;;;;;;11.50;41.17;101409.69;5027364;28;20147;-85
2023/10/15 03:45:51;;;;;;;4.65;2.00;;;;;;;11.53;40.99;101408.56;5045869;28;20076;-83
2023/10/15 03:48:21;;;;;;;6.07;2.00;;;;;;;11.50;40.75;101404.19;5065808;28;20159;-83
2023/10/15 03:50:55;;;;;;;4.85;1.90;;;;;;;11.52;40.81;101413.16;5044006;28;20795;-82
2023/10/15 03:53:27;;;;;;;4.03;1.95;;;;;;;11.51;41.51;101416.91;5083831;28;20032;-83
2023/10/15 03:55:57;;;;;;;5.28;2.22;;;;;;;11.48;41.43;101402.56;5069962;28;20116;-82
2023/10/15 03:58:26;;;;;;;6.40;1.75;;;;;;;11.51;41.41;101408.69;5062863;28;20061;-84
2023/10/15 04:01:12;;;;;;;3.67;2.15;;;;;;;11.55;41.87;101410.19;5037136;28;20045;-83
2023/10/15 04:03:43;;;;;;;3.70;2.03;;;;;;;11.51;41.50;101400.47;5043328;28;20048;-83
2023/10/15 04:06:13;;;;;;;4.70;2.25;;;;;;;11.52;41.17;101379.41;5061177;28;20056;-83
2023/10/15 04:09:08;;;;;;;5.85;2.50;;;;;;;11.54;41.20;101393.84;5032730;28;20143;-84
2023/10/15 04:11:42;;;;;;;5.13;2.13;;;;;;;11.54;41.58;101382.91;5060923;28;20090;-84
2023/10/15 04:14:17;;;;;;;3.78;1.92;;;;;;;11.53;41.75;101390.25;5041687;28;20072;-83
2023/10/15 04:16:47;;;;;;;3.55;2.03;;;;;;;11.56;41.46;101389.97;5042635;28;20064;-84
2023/10/15 04:19:17;;;;;;;5.30;2.15;;;;;;;11.54;41.46;101372.81;5042675;28;20048;-83
2023/10/15 04:21:46;;;;;;;5.10;2.20;;;;;;;11.56;41.60;101381.75;5036998;28;20159;-84
2023/10/15 04:24:18;;;;;;;3.55;2.40;;;;;;;11.55;41.25;101370.94;5035715;28;20048;-84
2023/10/15 04:26:48;;;;;;;3.75;2.10;;;;;;;11.53;41.72;101372.94;5042555;28;20056;-83
2023/10/15 04:29:17;;;;;;;4.35;2.45;;;;;;;11.53;41.46;101375.66;5045534;28;20682;-83
2023/10/15 04:31:56;;;;;;;3.53;2.00;;;;;;;11.56;41.80;101378.13;5059172;28;20083;-84
2023/10/15 04:34:26;;;;;;;4.57;1.80;;;;;;;11.52;42.01;101409.56;5045852;28;20094;-84
2023/10/15 04:36:57;;;;;;;4.15;1.92;;;;;;;11.53;42.21;101425.88;5046940;28;20087;-84
2023/10/15 04:39:25;;;;;;;3.42;1.92;;;;;;;11.54;42.11;101418.53;5047345;28;20655;-84
2023/10/15 04:42:20;;;;;;;3.15;1.90;;;;;;;11.52;41.88;101423.25;5038677;28;20114;-83
2023/10/15 04:44:50;;;;;;;3.83;2.08;;;;;;;11.53;41.98;101430.50;5037304;28;20060;-83
2023/10/15 04:47:25;;;;;;;4.55;2.15;;;;;;;11.54;42.18;101430.38;5054871;28;20080;-83
2023/10/15 04:49:57;;;;;;;3.92;2.08;;;;;;;11.51;41.94;101422.38;5048895;28;20071;-84
2023/10/15 04:52:26;;;;;;;3.22;2.00;;;;;;;11.51;42.32;101427.88;5043163;28;20512;-83
2023/10/15 04:54:55;;;;;;;3.80;2.10;;;;;;;11.49;42.24;101435.34;5043253;28;20143;-84
2023/10/15 04:57:25;;;;;;;4.50;2.03;;;;;;;11.49;41.96;101429.00;5041378;28;20400;-84
2023/10/15 05:10:26;;;;;;;2.75;1.27;;;;;;;11.40;41.96;101425.13;5039412;28;20048;-83
2023/10/15 05:12:55;;;;;;;1.33;0.95;;;;;;;11.39;41.73;101431.59;5040170;28;20111;-83
2023/10/15 05:15:25;;;;;;;2.25;1.20;;;;;;;11.37;42.17;101433.63;5042422;28;20281;-83
2023/10/15 05:17:54;;;;;;;2.85;1.20;;;;;;;11.39;42.18;101428.03;5045948;28;20057;-83
2023/10/15 05:20:24;;;;;;;2.70;1.20;;;;;;;11.39;42.37;101434.34;5031361;28;20840;-82
2023/10/15 05:22:56;;;;;;;2.05;1.17;;;;;;;11.35;42.06;101433.75;5037320;28;20820;-83
2023/10/15 05:25:27;;;;;;;2.83;1.33;;;;;;;11.35;42.24;101432.88;5042519;28;20131;-84
2023/10/15 05:27:55;;;;;;;2.15;1.23;;;;;;;11.34;42.45;101426.50;5055509;28;20091;-82
2023/10/15 05:30:23;;;;;;;4.03;1.35;;;;;;;11.31;42.63;101424.00;5081564;28;20841;-82
2023/10/15 05:32:51;;;;;;;3.08;1.20;;;;;;;11.30;42.60;101414.09;5064116;28;20046;-82
2023/10/15 05:35:20;;;;;;;1.98;1.20;;;;;;;11.28;42.40;101413.31;5055648;28;20175;-82
2023/10/15 05:37:49;;;;;;;2.25;1.30;;;;;;;11.28;42.55;101412.44;5068872;28;20053;-84
2023/10/15 05:40:17;;;;;;;2.55;1.50;;;;;;;11.27;42.26;101416.19;5058032;28;20052;-82
2023/10/15 05:42:45;;;;;;;3.08;1.85;;;;;;;11.25;42.08;101410.81;5058151;28;20104;-83
2023/10/15 05:45:14;;;;;;;3.15;1.30;;;;;;;11.25;42.38;101413.56;5047150;28;20390;-84
2023/10/15 05:47:43;;;;;;;2.67;1.30;;;;;;;11.23;42.54;101409.19;5050189;28;20592;-84
2023/10/15 05:50:13;;;;;;;2.15;1.40;;;;;;;11.21;42.75;101419.44;5052631;28;20052;-83
2023/10/15 05:52:41;;;;;;;2.30;1.40;;;;;;;11.17;42.25;101417.94;5043445;28;20444;-84
2023/10/15 05:55:12;;;;;;;2.95;1.50;;;;;;;11.17;42.08;101409.72;5051626;28;20537;-82
2023/10/15 05:57:40;;;;;;;2.58;1.50;;;;;;;11.15;42.33;101417.16;5045419;28;20487;-86
2023/10/15 06:00:18;;;;;;;2.38;1.40;;;;;;;11.14;42.15;101416.28;5049338;28;20056;-84
2023/10/15 06:02:48;;;;;;;2.25;1.33;;;;;;;11.10;42.70;101428.50;5064487;28;20421;-83
2023/10/15 06:05:16;;;;;;;2.28;1.30;;;;;;;11.07;42.31;101436.97;5042355;28;20059;-84
2023/10/15 06:07:45;;;;;;;1.52;1.30;;;;;;;11.05;41.91;101438.09;5049933;28;20058;-84
2023/10/15 06:10:15;;;;;;;2.63;1.30;;;;;;;11.05;42.22;101446.34;5039901;28;20052;-83
2023/10/15 06:12:44;;;;;;;2.22;1.48;;;;;;;10.99;42.15;101440.31;5062579;28;20143;-83
2023/10/15 06:15:15;;;;;;;4.75;1.70;;;;;;;10.96;42.33;101445.19;5048721;28;20047;-85
2023/10/15 06:17:47;;;;;;;2.88;1.90;;;;;;;10.92;42.22;101444.56;5046507;28;20075;-84
2023/10/15 06:20:16;;;;;;;2.72;1.50;;;;;;;10.89;42.27;101435.72;5067018;28;20056;-85
2023/10/15 06:22:45;;;;;;;2.85;1.58;;;;;;;10.87;42.58;101430.38;5065064;28;20111;-84
2023/10/15 06:25:17;;;;;;;3.28;1.67;;;;;;;10.86;42.84;101434.09;5057592;28;20102;-84
2023/10/15 06:27:46;;;;;;;2.42;1.63;;;;;;;10.78;42.77;101422.00;5048882;28;20079;-84
2023/10/15 06:30:16;;;;;;;3.33;1.60;;;;;;;10.78;42.82;101433.84;5057782;28;20064;-84
2023/10/15 06:32:52;;;;;;;2.83;1.77;;;;;;;10.77;42.74;101443.03;5047778;28;20053;-84
2023/10/15 06:35:23;;;;;;;2.42;1.50;;;;;;;10.74;42.80;101443.28;5057296;28;20118;-84
2023/10/15 06:37:55;;;;;;;3.15;1.75;;;;;;;10.74;43.08;101443.28;5041748;28;20474;-84
2023/10/15 06:40:26;;;;;;;2.53;1.55;;;;;;;10.71;43.26;101453.63;5039033;28;20049;-86
2023/10/15 06:43:00;;;;;;;3.35;1.67;;;;;;;10.73;43.05;101457.09;5063538;28;20140;-86
2023/10/15 06:45:30;;;;;;;1.92;1.30;;;;;;;10.69;43.34;101459.19;5046010;28;20049;-85
2023/10/15 06:48:00;;;;;;;2.53;1.35;;;;;;;10.71;43.00;101449.00;5038995;28;20075;-84
2023/10/15 06:50:29;;;;;;;2.03;1.20;;;;;;;10.71;43.28;101459.09;5043178;28;20531;-84
2023/10/15 06:53:01;;;;;;;2.70;1.48;;;;;;;10.71;43.28;101470.03;5036890;28;20143;-84
2023/10/15 06:55:32;;;;;;;;;;;;;;;10.43;43.84;101469.41;5054924;28;20071;-84
2023/10/15 06:58:03;;;;;;;2.47;1.17;;;;;;;10.63;43.28;101481.59;5054345;28;20000;-84
2023/10/15 07:00:32;;;;;;;1.80;1.17;;;;;;;10.67;42.87;101485.81;5038505;28;20596;-84
2023/10/15 07:03:00;;;;;;;2.05;1.00;;;;;;;10.66;43.33;101484.06;5041227;28;20071;-84
2023/10/15 07:05:32;;;;;;;2.05;1.08;;;;;;;10.66;43.40;101481.34;5063689;28;20044;-84
2023/10/15 07:08:00;;;;;;;1.83;0.90;;;;;;;10.62;43.23;101482.59;5061855;28;20033;-85
2023/10/15 07:10:29;;;;;;;1.50;0.80;;;;;;;10.62;42.86;101485.31;5059984;28;20063;-85
2023/10/15 07:13:01;;;;;;;1.77;0.90;;;;;;;10.65;43.14;101489.69;5045122;28;20048;-84
2023/10/15 07:15:29;;;;;;;3.20;0.80;;;;;;;10.58;42.98;101490.16;5049960;28;20069;-84
2023/10/15 07:17:58;;;;;;;1.20;0.80;;;;;;;10.59;43.05;101491.03;5057557;28;20052;-85
2023/10/15 07:20:27;;;;;;;0.95;0.70;;;;;;;10.59;42.99;101504.72;5067376;28;20059;-84
2023/10/15 07:22:57;;;;;;;1.50;0.70;;;;;;;10.55;43.01;101490.41;5050778;28;20135;-84
2023/10/15 07:25:26;;;;;;;2.22;0.80;;;;;;;10.54;42.87;101506.94;5064401;28;20934;-83
2023/10/15 07:27:57;;;;;;;0.90;0.60;;;;;;;10.54;43.37;101502.34;5066465;28;20044;-84
2023/10/15 07:30:30;;;;;;;1.42;0.65;;;;;;;10.55;43.43;101516.91;5048801;28;20072;-83
2023/10/15 07:32:59;;;;;;;1.48;0.80;;;;;;;10.52;43.45;101514.34;5053536;28;20040;-86
2023/10/15 07:35:29;;;;;;;1.30;0.70;;;;;;;10.54;43.55;101528.84;5033187;28;20131;-83
2023/10/15 07:37:58;;;;;;;1.58;0.60;;;;;;;10.55;43.69;101527.84;5041421;28;20155;-84
2023/10/15 07:40:27;;;;;;;2.08;0.80;;;;;;;10.55;43.50;101536.94;5052793;28;20087;-85
2023/10/15 07:42:58;;;;;;;1.45;0.85;;;;;;;10.56;43.75;101535.06;5046613;28;20434;-83
2023/10/15 07:45:30;;;;;;;1.65;0.57;;;;;;;10.57;43.67;101551.34;5052984;28;20189;-84
2023/10/15 07:48:00;;;;;;;2.38;0.63;;;;;;;10.57;43.69;101548.59;5050016;28;20122;-83
2023/10/15 07:50:30;;;;;;;2.25;0.70;;;;;;;10.56;43.33;101543.28;5055515;28;20053;-84
2023/10/15 07:53:00;;;;;;;2.22;0.80;;;;;;;10.58;43.61;101553.09;5042993;28;20052;-84
2023/10/15 07:55:28;;;;;;;2.13;0.80;;;;;;;10.57;43.58;101551.34;5054668;28;20695;-83
2023/10/15 07:57:57;;;;;;;1.60;0.68;;;;;;;10.59;43.52;101564.91;5044799;28;20048;-84
2023/10/15 08:00:29;;;;;;;1.48;0.88;;;;;;;10.56;43.30;101556.97;5044251;28;20055;-85
2023/10/15 08:02:58;;;;;;;1.90;0.70;;;;;;;10.57;43.38;101556.81;5044036;28;20064;-85
2023/10/15 08:05:31;;;;;;;1.15;0.82;;;;;;;10.55;43.31;101549.75;5041359;28;20072;-84
2023/10/15 08:08:01;;;;;;;1.55;0.80;;;;;;;10.54;43.28;101553.47;5049591;28;20095;-83
2023/10/15 08:10:33;;;;;;;1.75;0.90;;;;;;;10.51;43.37;101550.91;5062479;28;20062;-83
2023/10/15 08:13:03;;;;;;;2.33;0.80;;;;;;;10.50;43.23;101560.13;5049249;28;20052;-82
2023/10/15 08:15:33;;;;;;;2.58;1.00;;;;;;;10.50;43.49;101569.19;5054195;28;20063;-83
2023/10/15 08:18:04;;;;;;;1.92;0.90;;;;;;;10.53;43.52;101560.81;5039977;28;20037;-82
2023/10/15 08:20:32;;;;;;;1.42;0.60;;;;;;;10.50;44.12;101563.72;5055170;28;20040;-83
2023/10/15 08:23:01;;;;;;;1.70;0.90;;;;;;;10.54;43.88;101581.72;5043040;28;20137;-82
2023/10/15 08:25:31;;;;;;;2.00;1.00;;;;;;;10.55;44.24;101579.84;5047640;28;20059;-83
2023/10/15 08:28:02;;;;;;;2.67;1.20;;;;;;;10.58;44.10;101574.13;5031391;28;20076;-85
2023/10/15 08:30:32;;;;;;;2.17;1.15;;;;;;;10.59;43.89;101574.00;5034603;28;20055;-84
2023/10/15 08:33:03;;;;;;;3.78;1.20;;;;;;;10.60;43.75;101578.50;5044219;28;20056;-83
2023/10/15 08:35:32;;;;;;;3.15;1.40;;;;;;;10.62;43.67;101574.78;5045952;28;20057;-83
2023/10/15 08:38:00;;;;;;;1.95;1.23;;;;;;;10.62;43.67;101578.38;5057546;28;20522;-84
2023/10/15 08:40:35;;;;;;;2.35;1.27;;;;;;;10.67;43.90;101578.91;5053112;28;20099;-83
2023/10/15 08:43:13;;;;;;;1.95;1.08;;;;;;;10.67;44.02;101589.84;5054502;28;20052;-85
2023/10/15 08:45:43;;;;;;;2.30;1.58;;;;;;;10.69;43.76;101592.47;5060217;28;20052;-83
2023/10/15 08:50:59;;;;;;;2.90;1.60;;;;;;;10.71;43.76;101593.22;5025701;28;20475;-83
2023/10/15 08:53:30;;;;;;;2.45;1.63;;;;;;;10.73;44.04;101586.63;5037356;28;20130;-84
2023/10/15 08:55:59;;;;;;;3.38;1.40;;;;;;;10.75;43.93;101594.72;5044985;28;20052;-84
2023/10/15 08:58:28;;;;;;;2.55;1.38;;;;;;;10.78;43.78;101598.13;5055013;28;20465;-84
2023/10/15 09:00:57;;;;;;;3.30;1.50;;;;;;;10.79;44.22;101610.81;5028507;28;20126;-84
2023/10/15 09:03:27;;;;;;;3.13;1.40;;;;;;;10.81;44.15;101616.19;5042040;28;20617;-84
2023/10/15 09:05:56;;;;;;;2.60;1.52;;;;;;;10.82;44.14;101615.16;5035043;28;20072;-85
2023/10/15 09:08:24;;;;;;;2.70;1.50;;;;;;;10.84;44.13;101621.41;5050788;28;20068;-84
2023/10/15 09:10:53;;;;;;;2.67;1.30;;;;;;;10.86;44.31;101619.44;5031263;28;20087;-84
2023/10/15 09:13:22;;;;;;;2.15;1.30;;;;;;;10.89;44.24;101625.56;5058077;28;20400;-85
2023/10/15 09:15:52;;;;;;;2.72;1.52;;;;;;;10.91;44.07;101625.41;5036330;28;20513;-83
2023/10/15 09:18:23;;;;;;;2.88;1.50;;;;;;;10.92;43.77;101630.78;5041768;28;20056;-85
2023/10/15 09:20:52;;;;;;;2.40;1.38;;;;;;;10.96;44.19;101639.66;5045453;28;20044;-83
2023/10/15 09:23:22;;;;;;;3.30;1.38;;;;;;;10.94;43.99;101642.50;5054567;28;20704;-85
2023/10/15 09:25:55;;;;;;;2.42;1.20;;;;;;;10.99;44.03;101653.97;5041156;28;20049;-82
2023/10/15 09:28:27;;;;;;;2.20;1.27;;;;;;;10.97;44.01;101653.22;5039566;28;20068;-85
2023/10/15 09:31:03;;;;;;;2.78;1.60;;;;;;;10.99;43.30;101662.19;5030651;28;20053;-83
2023/10/15 09:33:32;;;;;;;2.40;1.40;;;;;;;10.97;43.45;101661.44;5052568;28;20075;-85
2023/10/15 09:36:03;;;;;;;2.75;1.48;;;;;;;11.00;43.72;101668.53;5044406;28;20680;-86
2023/10/15 09:38:32;;;;;;;2.30;1.20;;;;;;;11.01;43.49;101670.28;5047246;28;20059;-83
2023/10/15 09:41:01;;;;;;;2.83;1.50;;;;;;;11.01;43.56;101673.03;5052800;28;20044;-85
2023/10/15 09:43:31;;;;;;;3.13;1.20;;;;;;;11.01;43.57;101670.28;5045937;28;20098;-83
2023/10/15 09:45:59;;;;;;;2.08;1.20;;;;;;;11.03;43.51;101673.78;5053252;28;20052;-84
2023/10/15 09:48:28;;;;;;;2.50;1.17;;;;;;;11.04;43.67;101680.16;5044838;28;20048;-85
2023/10/15 09:50:59;;;;;;;2.25;1.17;;;;;;;11.06;43.26;101684.50;5044569;28;20064;-84
2023/10/15 09:53:29;;;;;;;2.80;1.27;;;;;;;11.06;43.38;101681.75;5035290;28;20132;-84
2023/10/15 09:56:01;;;;;;;2.47;1.08;;;;;;;11.06;43.22;101679.00;5028001;28;20079;-84
2023/10/15 09:58:29;;;;;;;2.65;1.08;;;;;;;11.07;43.54;101690.84;5032890;28;20056;-84
2023/10/15 10:01:08;;;;;;;2.60;1.13;;;;;;;11.10;43.85;101691.50;5044274;28;20111;-85
2023/10/15 10:04:16;;;;;;;2.10;1.20;;;;;;;11.05;43.06;101698.34;5034568;28;20065;-84
2023/10/15 10:07:13;;;;;;;1.80;1.10;;;;;;;11.08;43.38;101706.28;5063243;28;20060;-83
2023/10/15 10:10:01;;;;;;;2.20;1.25;;;;;;;11.09;43.24;101702.56;5073202;28;20104;-83
2023/10/15 10:12:44;;;;;;;2.00;0.90;;;;;;;11.09;42.62;101711.66;5048491;28;20033;-84
2023/10/15 10:15:29;;;;;;;2.47;0.93;;;;;;;11.06;42.73;101711.88;5069385;28;20068;-83
2023/10/15 10:18:00;;;;;;;1.30;0.77;;;;;;;11.05;43.02;101718.38;5060551;28;20053;-84
2023/10/15 10:20:36;;;;;;;2.38;1.00;;;;;;;11.02;42.77;101715.00;5039969;28;20049;-84
2023/10/15 10:23:06;;;;;;;1.77;0.75;;;;;;;11.00;43.03;101717.84;5042090;28;20134;-86
2023/10/15 10:25:41;;;;;;;1.85;0.80;;;;;;;11.01;43.11;101719.59;5049444;28;20079;-85
2023/10/15 10:28:11;;;;;;;2.88;1.00;;;;;;;11.00;42.98;101717.84;5043583;28;20067;-84
2023/10/15 10:30:52;;;;;;;;;;;;;;;10.73;43.64;101714.47;5044296;28;20049;-83
2023/10/15 10:33:48;;;;;;;1.67;0.90;;;;;;;10.96;43.25;101713.59;5046043;28;19928;-85
2023/10/15 10:36:18;;;;;;;1.58;0.70;;;;;;;10.95;43.46;101709.13;5055804;28;20053;-84
2023/10/15 10:38:59;;;;;;;2.65;0.98;;;;;;;11.02;43.51;101718.59;5030342;28;20053;-85
2023/10/15 10:41:40;;;;;;;2.42;0.88;;;;;;;10.98;43.82;101709.72;5039617;28;20044;-86
2023/10/15 10:44:10;;;;;;;2.58;1.20;;;;;;;11.02;43.68;101712.25;5041005;28;20143;-85
2023/10/15 10:46:54;;;;;;;3.05;0.90;;;;;;;11.01;43.82;101716.84;5041584;28;20789;-84
2023/10/15 10:49:29;;;;;;;2.35;0.98;;;;;;;11.05;43.59;101721.13;5033894;28;20102;-85
2023/10/15 10:52:14;;;;;;;2.03;0.90;;;;;;;11.08;42.77;101722.72;5052042;28;20128;-86
2023/10/15 10:54:44;;;;;;;3.40;1.00;;;;;;;11.05;43.19;101726.59;5052698;28;20140;-84
2023/10/15 10:57:18;;;;;;;2.45;1.05;;;;;;;11.08;42.91;101725.47;5025488;28;20049;-85
2023/10/15 10:59:48;;;;;;;2.65;1.00;;;;;;;11.08;42.88;101725.47;5034331;28;20072;-85
2023/10/15 11:05:36;;;;;;;2.55;0.88;;;;;;;11.09;42.58;101724.50;5055275;28;20504;-85
2023/10/15 11:08:16;;;;;;;1.58;0.60;;;;;;;11.12;42.68;101721.53;5049570;28;20084;-84
2023/10/15 11:10:45;;;;;;;2.20;0.63;;;;;;;11.15;42.66;101724.00;5045737;28;20079;-83
2023/10/15 11:13:15;;;;;;;1.05;0.60;;;;;;;11.17;42.94;101722.91;5030443;28;20041;-84
2023/10/15 11:15:43;;;;;;;2.08;1.00;;;;;;;11.20;42.88;101735.50;5041860;28;20044;-84
2023/10/15 11:18:11;;;;;;;2.15;0.80;;;;;;;11.22;42.55;101734.41;5048110;28;20049;-84
2023/10/15 11:20:40;;;;;;;1.17;0.80;;;;;;;11.25;42.23;101739.63;5054863;28;20684;-83
2023/10/15 11:23:10;;;;;;;1.50;0.70;;;;;;;11.25;42.38;101736.91;5042075;28;20049;-84
2023/10/15 11:25:38;;;;;;;2.92;0.80;;;;;;;11.29;42.06;101734.81;5043697;28;20152;-86
2023/10/15 11:28:07;;;;;;;2.70;0.77;;;;;;;11.30;42.51;101737.44;5045970;28;20402;-85
2023/10/15 11:30:37;;;;;;;1.85;0.63;;;;;;;11.33;42.10;101741.78;5047146;28;20037;-83
2023/10/15 11:33:07;;;;;;;2.10;0.60;;;;;;;11.33;41.79;101739.94;5038507;28;20073;-86
2023/10/15 11:35:35;;;;;;;2.30;0.75;;;;;;;11.35;42.05;101734.34;5045477;28;20076;-86
2023/10/15 11:38:08;;;;;;;2.08;0.65;;;;;;;11.38;41.74;101716.78;5023133;28;20045;-85
2023/10/15 11:40:38;;;;;;;1.33;0.60;;;;;;;11.38;41.73;101728.63;5027981;28;20087;-86
2023/10/15 11:43:12;;;;;;;2.63;0.70;;;;;;;11.42;41.59;101737.47;5038402;28;20163;-86
2023/10/15 11:45:43;;;;;;;2.00;0.70;;;;;;;11.42;41.89;101730.13;5042686;28;20119;-85
2023/10/15 11:48:12;;;;;;;1.85;0.80;;;;;;;11.42;42.08;101738.34;5037508;28;20048;-84
2023/10/15 11:50:41;;;;;;;1.88;0.70;;;;;;;11.45;41.55;101739.97;5050378;28;20124;-85
2023/10/15 11:53:16;;;;;;;1.88;0.82;;;;;;;11.48;41.11;101731.50;5064602;28;20044;-84
2023/10/15 11:55:47;;;;;;;1.55;0.70;;;;;;;11.46;41.97;101736.25;5067155;28;20053;-84
2023/10/15 11:58:19;;;;;;;1.42;0.70;;;;;;;11.49;41.38;101736.00;5060866;28;20141;-84
2023/10/15 12:00:49;;;;;;;1.83;0.75;;;;;;;11.52;41.63;101744.00;5039423;28;20056;-84
2023/10/15 12:03:20;;;;;;;2.92;0.82;;;;;;;11.54;41.49;101747.50;5027062;28;20720;-84
2023/10/15 12:05:49;;;;;;;2.45;0.60;;;;;;;11.57;42.11;101747.25;5031499;28;20231;-85
2023/10/15 12:08:21;;;;;;;1.33;0.52;;;;;;;11.61;41.67;101744.19;5049581;28;20531;-86
2023/10/15 12:10:51;;;;;;;3.22;0.70;;;;;;;11.65;41.66;101742.94;5043471;28;20222;-85
2023/10/15 12:13:19;;;;;;;2.03;0.70;;;;;;;11.70;41.65;101743.47;5028204;28;20051;-84
2023/10/15 12:15:49;;;;;;;1.77;0.65;;;;;;;11.78;41.82;101737.38;5032400;28;20040;-86
2023/10/15 12:18:17;;;;;;;1.50;0.80;;;;;;;11.85;42.04;101735.91;5048281;28;20509;-86
2023/10/15 12:20:45;;;;;;;3.15;0.98;;;;;;;11.92;42.04;101739.91;5038810;28;20179;-86
2023/10/15 12:23:14;;;;;;;1.73;0.85;;;;;;;11.99;42.00;101738.41;5036329;28;20653;-85
2023/10/15 12:25:47;;;;;;;2.35;0.70;;;;;;;12.05;41.77;101735.16;5028379;28;20053;-87
2023/10/15 12:28:20;;;;;;;1.85;0.88;;;;;;;12.15;41.67;101738.06;5036105;28;20049;-85
2023/10/15 12:30:50;;;;;;;1.08;0.80;;;;;;;12.24;41.54;101740.06;5026979;28;20083;-85
2023/10/15 12:33:19;;;;;;;2.60;1.00;;;;;;;12.29;41.66;101726.84;5039660;28;20056;-84
2023/10/15 12:35:51;;;;;;;1.65;0.90;;;;;;;12.35;41.73;101726.34;5024266;28;20580;-84
2023/10/15 12:38:26;;;;;;;2.13;0.93;;;;;;;12.41;41.58;101727.72;5025226;28;20512;-85